createdAt,value
2023-04-07T00:00:50.443Z,13.41
2023-04-07T00:03:17.212Z,13.43
2023-04-07T00:05:43.930Z,13.44
2023-04-07T00:08:10.552Z,13.46
2023-04-07T00:10:37.214Z,13.47
2023-04-07T00:13:03.811Z,13.45
2023-04-07T00:15:31.809Z,13.48
2023-04-07T00:17:58.561Z,13.49
2023-04-07T00:20:25.250Z,13.48
2023-04-07T00:22:51.989Z,13.41
2023-04-07T00:25:18.666Z,13.41
2023-04-07T00:27:45.282Z,13.45
2023-04-07T00:30:12.166Z,13.44
2023-04-07T00:32:39.132Z,13.47
2023-04-07T00:35:06.158Z,13.44
2023-04-07T00:37:32.867Z,13.41
2023-04-07T00:39:59.516Z,13.37
2023-04-07T00:42:26.199Z,13.32
2023-04-07T00:44:52.962Z,13.41
2023-04-07T00:47:20.091Z,13.46
2023-04-07T00:49:46.755Z,13.42
2023-04-07T00:52:13.380Z,13.49
2023-04-07T00:54:40.035Z,13.54
2023-04-07T00:57:06.885Z,13.52
2023-04-07T00:59:33.501Z,13.52
2023-04-07T01:02:16.832Z,13.49
2023-04-07T01:04:46.599Z,13.48
2023-04-07T01:07:18.977Z,13.45
2023-04-07T01:10:03.342Z,13.38
2023-04-07T01:12:53.051Z,13.41
2023-04-07T01:15:21.091Z,13.36
2023-04-07T01:17:50.533Z,13.38
2023-04-07T01:20:18.096Z,13.37
2023-04-07T01:22:51.182Z,13.35
2023-04-07T01:25:39.866Z,13.36
2023-04-07T01:28:33.942Z,13.37
2023-04-07T01:31:00.699Z,13.36
2023-04-07T01:33:27.335Z,13.34
2023-04-07T01:35:54.056Z,13.39
2023-04-07T01:38:20.672Z,13.38
2023-04-07T01:40:47.511Z,13.36
2023-04-07T01:43:14.280Z,13.36
2023-04-07T01:45:40.984Z,13.36
2023-04-07T01:48:07.797Z,13.31
2023-04-07T01:50:34.466Z,13.37
2023-04-07T01:53:01.184Z,13.38
2023-04-07T01:55:27.852Z,13.40
2023-04-07T01:57:54.481Z,13.42
2023-04-07T02:00:21.175Z,13.39
2023-04-07T02:02:47.999Z,13.38
2023-04-07T02:05:15.939Z,13.37
2023-04-07T02:07:46.905Z,13.40
2023-04-07T02:10:14.818Z,13.39
2023-04-07T02:12:41.454Z,13.25
2023-04-07T02:15:11.118Z,13.30
2023-04-07T02:17:40.105Z,13.33
2023-04-07T02:20:08.132Z,13.27
2023-04-07T02:22:34.756Z,13.27
2023-04-07T02:25:01.378Z,13.26
2023-04-07T02:27:27.994Z,13.26
2023-04-07T02:29:54.640Z,13.25
2023-04-07T02:32:21.253Z,13.17
2023-04-07T02:34:47.918Z,13.20
2023-04-07T02:37:14.565Z,13.18
2023-04-07T02:39:41.188Z,13.17
2023-04-07T02:42:07.821Z,13.10
2023-04-07T02:44:34.461Z,13.10
2023-04-07T02:47:01.103Z,13.02
2023-04-07T02:49:27.839Z,13.01
2023-04-07T02:51:54.492Z,12.98
2023-04-07T02:54:21.099Z,12.98
2023-04-07T02:56:47.800Z,12.98
2023-04-07T02:59:14.579Z,12.88
2023-04-07T03:01:41.427Z,12.91
2023-04-07T03:04:08.228Z,12.91
2023-04-07T03:06:34.961Z,12.89
2023-04-07T03:09:01.550Z,12.77
2023-04-07T03:11:28.140Z,12.78
2023-04-07T03:13:54.911Z,12.80
2023-04-07T03:16:21.755Z,12.85
2023-04-07T03:18:48.386Z,12.84
2023-04-07T03:21:14.972Z,12.86
2023-04-07T03:23:41.651Z,12.84
2023-04-07T03:26:08.341Z,12.82
2023-04-07T03:28:34.975Z,12.85
2023-04-07T03:31:01.688Z,12.91
2023-04-07T03:33:28.329Z,12.92
2023-04-07T03:35:55.001Z,12.94
2023-04-07T03:38:22.376Z,12.88
2023-04-07T03:40:49.042Z,12.91
2023-04-07T03:43:15.669Z,12.73
2023-04-07T03:45:42.397Z,12.89
2023-04-07T03:48:09.113Z,12.95
2023-04-07T03:50:35.898Z,12.96
2023-04-07T03:53:02.499Z,12.95
2023-04-07T03:55:29.186Z,12.91
2023-04-07T03:57:55.842Z,12.98
2023-04-07T04:00:22.514Z,12.88
2023-04-07T04:02:49.353Z,12.87
2023-04-07T04:05:16.112Z,12.95
2023-04-07T04:07:42.730Z,12.88
2023-04-07T04:10:09.488Z,12.90
2023-04-07T04:12:36.177Z,13.04
2023-04-07T04:15:02.839Z,13.07
2023-04-07T04:17:29.614Z,12.95
2023-04-07T04:19:56.282Z,13.00
2023-04-07T04:22:22.930Z,13.06
2023-04-07T04:24:49.584Z,13.08
2023-04-07T04:27:16.273Z,13.09
2023-04-07T04:29:43.139Z,13.12
2023-04-07T04:32:09.794Z,13.09
2023-04-07T04:34:36.457Z,13.08
2023-04-07T04:37:03.177Z,13.08
2023-04-07T04:39:29.872Z,13.06
2023-04-07T04:41:56.468Z,13.01
2023-04-07T04:44:23.115Z,13.05
2023-04-07T04:46:49.788Z,13.01
2023-04-07T04:49:16.419Z,12.84
2023-04-07T04:51:43.013Z,12.68
2023-04-07T04:54:09.635Z,12.72
2023-04-07T04:56:36.282Z,12.76
2023-04-07T04:59:04.686Z,12.75
2023-04-07T05:01:33.235Z,12.70
2023-04-07T05:04:00.439Z,12.71
2023-04-07T05:06:27.527Z,12.76
2023-04-07T05:08:54.140Z,12.81
2023-04-07T05:11:20.762Z,12.69
2023-04-07T05:13:47.535Z,12.50
2023-04-07T05:16:14.188Z,12.49
2023-04-07T05:18:40.826Z,12.45
2023-04-07T05:21:07.460Z,12.45
2023-04-07T05:23:34.485Z,12.46
2023-04-07T05:26:01.087Z,12.47
2023-04-07T05:28:28.363Z,12.44
2023-04-07T05:30:55.023Z,12.45
2023-04-07T05:33:21.698Z,12.52
2023-04-07T05:35:48.515Z,12.42
2023-04-07T05:38:15.251Z,12.47
2023-04-07T05:40:42.159Z,12.49
2023-04-07T05:43:08.764Z,12.53
2023-04-07T05:45:35.620Z,12.13
2023-04-07T05:48:02.264Z,12.14
2023-04-07T05:50:28.943Z,11.98
2023-04-07T05:52:55.608Z,11.99
2023-04-07T05:55:22.284Z,12.00
2023-04-07T05:57:49.003Z,11.96
2023-04-07T06:00:15.902Z,11.91
2023-04-07T06:02:42.702Z,11.85
2023-04-07T06:05:09.594Z,11.97
2023-04-07T06:07:36.280Z,11.98
2023-04-07T06:10:02.906Z,12.02
2023-04-07T06:12:29.524Z,12.12
2023-04-07T06:14:56.469Z,12.03
2023-04-07T06:17:23.239Z,12.00
2023-04-07T06:19:50.277Z,12.12
2023-04-07T06:22:16.958Z,12.11
2023-04-07T06:24:43.741Z,12.16
2023-04-07T06:27:10.385Z,12.13
2023-04-07T06:29:37.053Z,12.14
2023-04-07T06:32:04.079Z,12.23
2023-04-07T06:34:30.713Z,12.22
2023-04-07T06:36:58.357Z,12.20
2023-04-07T06:39:27.052Z,12.18
2023-04-07T06:41:53.764Z,12.23
2023-04-07T06:44:20.452Z,12.26
2023-04-07T06:46:47.089Z,12.19
2023-04-07T06:49:13.749Z,12.07
2023-04-07T06:51:40.372Z,12.21
2023-04-07T06:54:06.993Z,12.31
2023-04-07T06:56:33.681Z,12.35
2023-04-07T06:59:00.323Z,12.41
2023-04-07T07:01:27.090Z,12.41
2023-04-07T07:03:54.014Z,12.32
2023-04-07T07:06:20.705Z,12.29
2023-04-07T07:08:47.348Z,12.35
2023-04-07T07:11:14.010Z,12.18
2023-04-07T07:13:40.670Z,12.28
2023-04-07T07:16:07.362Z,12.35
2023-04-07T07:18:34.037Z,12.39
2023-04-07T07:21:00.660Z,12.50
2023-04-07T07:23:27.282Z,12.58
2023-04-07T07:25:53.933Z,12.65
2023-04-07T07:28:20.533Z,12.51
2023-04-07T07:30:47.189Z,12.52
2023-04-07T07:33:13.817Z,12.57
2023-04-07T07:35:40.703Z,12.66
2023-04-07T07:38:07.475Z,12.66
2023-04-07T07:40:34.141Z,12.69
2023-04-07T07:43:00.815Z,12.75
2023-04-07T07:45:27.415Z,12.77
2023-04-07T07:47:54.029Z,12.76
2023-04-07T07:50:20.748Z,12.70
2023-04-07T07:52:47.416Z,12.80
2023-04-07T07:55:14.083Z,12.87
2023-04-07T07:57:40.726Z,12.90
2023-04-07T08:00:07.839Z,12.99
2023-04-07T08:02:35.926Z,13.13
2023-04-07T08:05:02.662Z,13.20
2023-04-07T08:07:29.441Z,13.32
2023-04-07T08:09:56.055Z,13.32
2023-04-07T08:12:22.801Z,13.43
2023-04-07T08:14:49.431Z,13.58
2023-04-07T08:17:16.960Z,13.61
2023-04-07T08:19:43.615Z,13.68
2023-04-07T08:22:10.269Z,13.61
2023-04-07T08:24:36.936Z,13.57
2023-04-07T08:27:03.571Z,13.61
2023-04-07T08:29:31.248Z,13.62
2023-04-07T08:31:58.686Z,13.57
2023-04-07T08:34:25.403Z,13.55
2023-04-07T08:36:52.136Z,13.65
2023-04-07T08:39:18.794Z,13.63
2023-04-07T08:41:45.600Z,13.67
2023-04-07T08:44:12.317Z,13.62
2023-04-07T08:46:39.252Z,13.51
2023-04-07T08:49:09.057Z,13.46
2023-04-07T08:51:35.767Z,13.52
2023-04-07T08:54:12.949Z,13.54
2023-04-07T08:56:40.129Z,13.54
2023-04-07T08:59:07.485Z,13.40
2023-04-07T09:01:35.037Z,13.29
2023-04-07T09:04:05.454Z,13.26
2023-04-07T09:06:32.326Z,13.33
2023-04-07T09:08:59.394Z,13.37
2023-04-07T09:11:26.944Z,13.52
2023-04-07T09:13:53.692Z,13.66
2023-04-07T09:16:20.415Z,13.76
2023-04-07T09:18:47.208Z,13.77
2023-04-07T09:21:19.404Z,13.77
2023-04-07T09:23:47.064Z,13.75
2023-04-07T09:26:21.047Z,13.73
2023-04-07T09:29:01.641Z,13.76
2023-04-07T09:31:50.318Z,13.86
2023-04-07T09:34:31.240Z,13.71
2023-04-07T09:36:57.861Z,13.74
2023-04-07T09:39:24.841Z,13.77
2023-04-07T09:41:51.451Z,13.70
2023-04-07T09:44:24.845Z,13.65
2023-04-07T09:47:01.381Z,13.60
2023-04-07T09:49:28.008Z,13.78
2023-04-07T09:51:54.515Z,14.03
2023-04-07T09:54:37.441Z,14.15
2023-04-07T09:57:06.152Z,14.18
2023-04-07T09:59:33.282Z,14.30
2023-04-07T10:02:00.326Z,14.44
2023-04-07T10:04:27.618Z,14.50
2023-04-07T10:06:54.246Z,14.58
2023-04-07T10:09:26.625Z,14.76
2023-04-07T10:11:53.973Z,14.74
2023-04-07T10:14:21.929Z,14.81
2023-04-07T10:16:48.603Z,14.77
2023-04-07T10:19:15.296Z,14.60
2023-04-07T10:21:42.759Z,14.45
2023-04-07T10:24:19.142Z,14.47
2023-04-07T10:26:47.568Z,14.50
2023-04-07T10:29:14.328Z,14.50
2023-04-07T10:31:40.960Z,14.46
2023-04-07T10:34:07.669Z,14.43
2023-04-07T10:36:34.965Z,14.40
2023-04-07T10:39:07.394Z,14.50
2023-04-07T10:41:40.878Z,14.69
2023-04-07T10:44:08.595Z,14.85
2023-04-07T10:46:47.413Z,14.87
2023-04-07T10:49:17.780Z,14.90
2023-04-07T10:51:45.454Z,14.83
2023-04-07T10:54:22.266Z,14.99
2023-04-07T10:57:03.986Z,15.00
2023-04-07T10:59:30.876Z,15.05
2023-04-07T11:02:12.666Z,15.04
2023-04-07T11:04:40.095Z,15.29
2023-04-07T11:07:07.224Z,15.41
2023-04-07T11:09:33.913Z,15.44
2023-04-07T11:12:00.549Z,15.37
2023-04-07T11:14:28.061Z,15.47
2023-04-07T11:16:54.813Z,15.50
2023-04-07T11:19:21.469Z,15.50
2023-04-07T11:21:48.198Z,15.33
2023-04-07T11:24:37.102Z,15.52
2023-04-07T11:27:03.712Z,15.45
2023-04-07T11:29:33.568Z,15.47
2023-04-07T11:32:03.230Z,15.43
2023-04-07T11:34:33.002Z,15.35
2023-04-07T11:37:18.289Z,15.44
2023-04-07T11:39:44.925Z,15.32
2023-04-07T11:42:11.578Z,15.28
2023-04-07T11:44:47.246Z,15.42
2023-04-07T11:47:13.898Z,15.44
2023-04-07T11:49:46.540Z,15.48
2023-04-07T11:52:13.200Z,15.51
2023-04-07T11:54:43.194Z,15.58
2023-04-07T11:57:09.931Z,15.60
2023-04-07T11:59:36.537Z,15.45
2023-04-07T12:02:03.224Z,15.22
2023-04-07T12:04:29.991Z,15.10
2023-04-07T12:07:06.846Z,15.03
2023-04-07T12:09:34.201Z,15.19
2023-04-07T12:12:00.876Z,15.40
2023-04-07T12:14:27.787Z,15.31
2023-04-07T12:16:55.319Z,15.12
2023-04-07T12:19:23.388Z,15.22
2023-04-07T12:21:50.036Z,15.26
2023-04-07T12:24:16.710Z,15.24
2023-04-07T12:26:43.345Z,15.34
2023-04-07T12:29:10.010Z,15.33
2023-04-07T12:31:36.807Z,15.44
2023-04-07T12:34:03.554Z,15.51
2023-04-07T12:36:30.198Z,15.49
2023-04-07T12:38:56.990Z,15.43
2023-04-07T12:41:24.348Z,15.38
2023-04-07T12:43:52.119Z,15.46
2023-04-07T12:46:22.087Z,15.46
2023-04-07T12:48:48.890Z,15.55
2023-04-07T12:51:15.772Z,15.58
2023-04-07T12:53:42.769Z,15.62
2023-04-07T12:56:09.901Z,15.51
2023-04-07T12:58:36.648Z,15.48
2023-04-07T13:01:03.326Z,15.42
2023-04-07T13:03:30.394Z,15.45
2023-04-07T13:05:57.244Z,15.52
2023-04-07T13:08:24.545Z,15.55
2023-04-07T13:10:51.241Z,15.76
2023-04-07T13:13:17.946Z,15.95
2023-04-07T13:15:44.689Z,15.95
2023-04-07T13:18:11.341Z,16.13
2023-04-07T13:20:38.025Z,16.14
2023-04-07T13:23:08.390Z,16.15
2023-04-07T13:25:37.006Z,16.29
2023-04-07T13:28:03.760Z,16.48
2023-04-07T13:30:30.507Z,16.59
2023-04-07T13:32:57.515Z,16.62
2023-04-07T13:35:24.188Z,16.59
2023-04-07T13:37:50.932Z,16.59
2023-04-07T13:40:17.556Z,16.62
2023-04-07T13:42:44.225Z,16.73
2023-04-07T13:45:14.043Z,16.63
2023-04-07T13:47:40.680Z,17.00
2023-04-07T13:50:07.611Z,17.12
2023-04-07T13:52:34.308Z,17.17
2023-04-07T13:55:01.357Z,17.17
2023-04-07T13:57:27.955Z,17.25
2023-04-07T13:59:54.637Z,17.37
2023-04-07T14:02:21.426Z,17.44
2023-04-07T14:04:48.183Z,17.37
2023-04-07T14:07:14.832Z,17.28
2023-04-07T14:09:41.510Z,17.40
2023-04-07T14:12:09.231Z,17.33
2023-04-07T14:14:35.890Z,17.40
2023-04-07T14:17:02.518Z,17.48
2023-04-07T14:19:29.122Z,17.59
2023-04-07T14:21:55.760Z,17.62
2023-04-07T14:24:22.459Z,17.69
2023-04-07T14:26:49.174Z,17.83
2023-04-07T14:29:15.833Z,17.91
2023-04-07T14:31:42.590Z,17.95
2023-04-07T14:34:09.238Z,17.98
2023-04-07T14:36:35.903Z,18.22
2023-04-07T14:39:02.526Z,18.54
2023-04-07T14:41:29.283Z,18.76
2023-04-07T14:43:55.943Z,18.87
2023-04-07T14:46:23.363Z,18.84
2023-04-07T14:48:50.565Z,18.92
2023-04-07T14:51:17.179Z,19.05
2023-04-07T14:53:43.902Z,18.94
2023-04-07T14:56:10.598Z,18.91
2023-04-07T14:58:37.397Z,18.86
2023-04-07T15:01:06.204Z,18.84
2023-04-07T15:03:33.434Z,18.44
2023-04-07T15:06:00.512Z,18.12
2023-04-07T15:08:27.135Z,18.05
2023-04-07T15:10:53.831Z,17.90
2023-04-07T15:13:20.552Z,17.91
2023-04-07T15:15:47.263Z,17.87
2023-04-07T15:18:14.012Z,17.83
2023-04-07T15:20:40.628Z,17.82
2023-04-07T15:23:07.238Z,17.96
2023-04-07T15:25:33.970Z,18.12
2023-04-07T15:28:00.598Z,18.32
2023-04-07T15:30:29.775Z,18.50
2023-04-07T15:32:57.767Z,18.71
2023-04-07T15:35:24.477Z,18.90
2023-04-07T15:37:51.318Z,19.14
2023-04-07T15:40:18.030Z,19.20
2023-04-07T15:42:44.678Z,19.07
2023-04-07T15:45:11.370Z,18.80
2023-04-07T15:47:38.075Z,18.62
2023-04-07T15:50:05.258Z,18.36
2023-04-07T15:52:32.174Z,18.09
2023-04-07T15:54:58.785Z,17.93
2023-04-07T15:57:25.522Z,17.84
2023-04-07T15:59:52.267Z,17.79
2023-04-07T16:02:22.102Z,17.77
2023-04-07T16:04:48.843Z,17.61
2023-04-07T16:07:15.451Z,17.71
2023-04-07T16:09:42.089Z,17.69
2023-04-07T16:12:08.727Z,17.54
2023-04-07T16:14:35.392Z,16.98
2023-04-07T16:17:02.353Z,16.83
2023-04-07T16:19:29.172Z,16.65
2023-04-07T16:21:56.063Z,16.42
2023-04-07T16:24:22.741Z,16.43
2023-04-07T16:26:49.962Z,16.21
2023-04-07T16:29:17.067Z,16.12
2023-04-07T16:31:43.955Z,15.95
2023-04-07T16:34:11.708Z,15.94
2023-04-07T16:36:39.020Z,15.82
2023-04-07T16:39:05.684Z,15.76
2023-04-07T16:41:32.399Z,15.80
2023-04-07T16:43:59.037Z,15.73
2023-04-07T16:46:29.114Z,15.66
2023-04-07T16:48:55.826Z,15.66
2023-04-07T16:51:22.450Z,15.52
2023-04-07T16:53:49.360Z,15.49
2023-04-07T16:56:19.803Z,15.44
2023-04-07T16:58:48.263Z,15.34
2023-04-07T17:01:15.108Z,15.25
2023-04-07T17:03:42.045Z,15.30
2023-04-07T17:06:08.898Z,15.24
2023-04-07T17:08:36.253Z,15.21
2023-04-07T17:11:06.683Z,15.09
2023-04-07T17:13:33.433Z,15.12
2023-04-07T17:16:03.599Z,14.92
2023-04-07T17:18:30.340Z,14.72
2023-04-07T17:20:57.020Z,14.74
2023-04-07T17:23:23.616Z,14.76
2023-04-07T17:25:50.496Z,14.75
2023-04-07T17:28:17.246Z,14.79
2023-04-07T17:30:43.830Z,14.75
2023-04-07T17:33:11.677Z,14.74
2023-04-07T17:35:38.412Z,14.50
2023-04-07T17:38:05.126Z,14.34
2023-04-07T17:40:32.021Z,14.48
2023-04-07T17:42:58.853Z,14.50
2023-04-07T17:45:25.497Z,14.39
2023-04-07T17:47:52.148Z,14.20
2023-04-07T17:50:18.888Z,14.05
2023-04-07T17:52:45.622Z,14.25
2023-04-07T17:55:12.357Z,14.20
2023-04-07T17:57:39.038Z,13.94
2023-04-07T18:00:06.198Z,13.88
2023-04-07T18:02:33.130Z,13.96
2023-04-07T18:05:00.447Z,13.72
2023-04-07T18:07:28.260Z,13.56
2023-04-07T18:09:55.498Z,13.64
2023-04-07T18:12:22.696Z,13.63
2023-04-07T18:14:49.438Z,13.70
2023-04-07T18:17:16.095Z,13.80
2023-04-07T18:19:42.707Z,13.61
2023-04-07T18:22:09.596Z,13.46
2023-04-07T18:24:36.573Z,13.65
2023-04-07T18:27:04.469Z,13.73
2023-04-07T18:29:31.112Z,13.69
2023-04-07T18:31:57.971Z,13.78
2023-04-07T18:34:24.573Z,13.80
2023-04-07T18:36:51.200Z,13.81
2023-04-07T18:39:17.943Z,13.63
2023-04-07T18:41:44.689Z,13.71
2023-04-07T18:44:11.852Z,13.68
2023-04-07T18:46:38.549Z,13.56
2023-04-07T18:49:05.322Z,13.43
2023-04-07T18:51:32.018Z,13.42
2023-04-07T18:53:58.730Z,13.37
2023-04-07T18:56:25.404Z,13.31
2023-04-07T18:58:52.058Z,13.29
2023-04-07T19:01:18.956Z,13.24
2023-04-07T19:03:45.760Z,13.30
2023-04-07T19:06:16.481Z,13.19
2023-04-07T19:08:43.181Z,13.15
2023-04-07T19:11:10.056Z,13.04
2023-04-07T19:13:36.829Z,13.16
2023-04-07T19:16:03.679Z,13.12
2023-04-07T19:18:30.309Z,13.04
2023-04-07T19:20:57.049Z,13.15
2023-04-07T19:23:23.765Z,13.06
2023-04-07T19:25:50.501Z,13.04
2023-04-07T19:28:17.326Z,13.14
2023-04-07T19:30:44.288Z,12.93
2023-04-07T19:33:10.980Z,13.03
2023-04-07T19:35:37.704Z,12.99
2023-04-07T19:38:07.327Z,12.99
2023-04-07T19:40:34.119Z,12.72
2023-04-07T19:43:00.902Z,12.75
2023-04-07T19:45:27.751Z,12.67
2023-04-07T19:47:54.556Z,12.64
2023-04-07T19:50:21.317Z,12.70
2023-04-07T19:52:47.971Z,12.76
2023-04-07T19:55:14.653Z,12.78
2023-04-07T19:57:41.441Z,12.61
2023-04-07T20:00:08.991Z,12.58
2023-04-07T20:02:36.436Z,12.73
2023-04-07T20:05:03.266Z,12.82
2023-04-07T20:07:30.822Z,12.88
2023-04-07T20:09:57.497Z,12.91
2023-04-07T20:12:24.312Z,12.95
2023-04-07T20:14:50.966Z,12.96
2023-04-07T20:17:18.845Z,13.02
2023-04-07T20:19:45.698Z,13.03
2023-04-07T20:22:12.401Z,13.03
2023-04-07T20:24:39.026Z,13.00
2023-04-07T20:27:05.677Z,12.90
2023-04-07T20:29:32.400Z,12.80
2023-04-07T20:31:59.122Z,12.71
2023-04-07T20:34:25.874Z,12.66
2023-04-07T20:36:53.348Z,12.61
2023-04-07T20:39:19.966Z,12.62
2023-04-07T20:41:46.593Z,12.57
2023-04-07T20:44:13.310Z,12.55
2023-04-07T20:46:40.090Z,12.51
2023-04-07T20:49:07.036Z,12.36
2023-04-07T20:51:34.921Z,12.46
2023-04-07T20:54:01.527Z,12.44
2023-04-07T20:56:28.195Z,12.48
2023-04-07T20:58:55.250Z,12.53
2023-04-07T21:01:21.957Z,12.52
2023-04-07T21:03:48.742Z,12.62
2023-04-07T21:06:15.663Z,12.64
2023-04-07T21:08:42.277Z,12.61
2023-04-07T21:11:08.931Z,12.57
2023-04-07T21:13:35.557Z,12.47
2023-04-07T21:16:02.278Z,12.52
2023-04-07T21:18:28.944Z,12.43
2023-04-07T21:20:59.328Z,12.42
2023-04-07T21:23:25.964Z,12.33
2023-04-07T21:25:52.573Z,12.25
2023-04-07T21:28:19.197Z,12.35
2023-04-07T21:30:45.888Z,12.41
2023-04-07T21:33:12.572Z,12.47
2023-04-07T21:35:39.393Z,12.54
2023-04-07T21:38:06.237Z,12.55
2023-04-07T21:40:32.857Z,12.60
2023-04-07T21:42:59.654Z,12.61
2023-04-07T21:45:26.430Z,12.65
2023-04-07T21:47:53.262Z,12.75
2023-04-07T21:50:19.971Z,12.71
2023-04-07T21:52:46.645Z,12.75
2023-04-07T21:55:13.401Z,12.74
2023-04-07T21:57:40.125Z,12.67
2023-04-07T22:00:07.536Z,12.70
2023-04-07T22:02:34.440Z,12.66
2023-04-07T22:05:01.347Z,12.65
2023-04-07T22:07:28.015Z,12.72
2023-04-07T22:09:54.692Z,12.69
2023-04-07T22:12:21.304Z,12.69
2023-04-07T22:14:50.308Z,12.66
2023-04-07T22:17:16.946Z,12.68
2023-04-07T22:19:43.621Z,12.66
2023-04-07T22:22:10.354Z,12.64
2023-04-07T22:24:37.150Z,12.62
2023-04-07T22:27:03.897Z,12.60
2023-04-07T22:29:30.592Z,12.59
2023-04-07T22:31:57.397Z,12.56
2023-04-07T22:34:24.226Z,12.57
2023-04-07T22:36:50.848Z,12.54
2023-04-07T22:39:17.493Z,12.56
2023-04-07T22:41:44.156Z,12.43
2023-04-07T22:44:10.828Z,12.33
2023-04-07T22:46:37.533Z,12.33
2023-04-07T22:49:04.975Z,12.24
2023-04-07T22:51:31.794Z,12.33
2023-04-07T22:53:58.497Z,12.39
2023-04-07T22:56:25.242Z,12.23
2023-04-07T22:58:52.144Z,12.35
2023-04-07T23:01:18.948Z,12.37
2023-04-07T23:03:45.738Z,12.36
2023-04-07T23:06:12.748Z,12.33
2023-04-07T23:08:39.410Z,12.38
2023-04-07T23:11:09.081Z,12.40
2023-04-07T23:13:35.715Z,12.33
2023-04-07T23:16:02.531Z,12.31
2023-04-07T23:18:29.380Z,12.21
2023-04-07T23:20:56.088Z,12.12
2023-04-07T23:23:22.741Z,12.13
2023-04-07T23:25:49.426Z,12.09
2023-04-07T23:28:16.146Z,12.08
2023-04-07T23:30:42.882Z,11.90
2023-04-07T23:33:12.531Z,11.92
2023-04-07T23:35:39.154Z,11.96
2023-04-07T23:38:05.850Z,11.92
2023-04-07T23:40:32.519Z,11.90
2023-04-07T23:42:59.188Z,11.83
2023-04-07T23:45:26.080Z,11.77
2023-04-07T23:47:52.863Z,11.77
2023-04-07T23:50:19.479Z,11.67
2023-04-07T23:52:46.200Z,11.64
2023-04-07T23:55:12.842Z,11.62
2023-04-07T23:57:39.540Z,11.59
